Time;durP1;ratioP1;P1;durP2;ratioP2;P2;SDS_P1;SDS_P2;PMS_P1;PMS_P2;Temp;Humidity;BMP_temperature;BMP_pressure;BME280_temperature;BME280_humidity;BME280_pressure;Samples;Min_cycle;Max_cycle;Signal;HPM_P1;HPM_P2
2022/09/25 00:01:20;;;;;;;5.82;2.63;;;;;;;;;;5015854;28;95365;-61
2022/09/25 00:03:46;;;;;;;2.55;2.15;;;;;;;;;;5015506;28;93122;-61
2022/09/25 00:06:14;;;;;;;3.42;2.30;;;;;;;;;;5020046;28;92782;-61
2022/09/25 00:08:40;;;;;;;3.50;2.35;;;;;;;;;;5016327;28;94135;-61
2022/09/25 00:11:12;;;;;;;4.38;2.22;;;;;;;;;;5015016;28;92504;-61
2022/09/25 00:13:39;;;;;;;2.63;2.00;;;;;;;;;;5016660;28;94062;-61
2022/09/25 00:16:08;;;;;;;2.90;2.00;;;;;;;;;;5016287;28;92674;-61
2022/09/25 00:21:19;;;;;;;2.22;2.00;;;;;;;;;;5019155;28;93063;-61
2022/09/25 00:23:46;;;;;;;3.38;2.22;;;;;;;;;;5018084;28;95965;-61
2022/09/25 00:26:13;;;;;;;3.35;1.90;;;;;;;;;;5016239;28;92439;-61
2022/09/25 00:28:40;;;;;;;2.40;1.80;;;;;;;;;;5019200;28;92867;-61
2022/09/25 00:31:06;;;;;;;2.03;1.58;;;;;;;;;;5015681;28;92454;-61
2022/09/25 00:33:33;;;;;;;3.67;2.17;;;;;;;;;;5016482;28;93009;-61
2022/09/25 00:36:04;;;;;;;3.03;1.90;;;;;;;;;;5015620;28;92379;-61
2022/09/25 00:38:30;;;;;;;2.78;2.13;;;;;;;;;;5001093;28;92553;-61
2022/09/25 00:40:57;;;;;;;1.90;1.80;;;;;;;;;;5016574;28;93917;-61
2022/09/25 00:43:36;;;;;;;2.22;2.03;;;;;;;;;;5015878;28;93235;-61
2022/09/25 00:46:04;;;;;;;2.17;1.90;;;;;;;;;;5015099;28;92507;-61
2022/09/25 00:48:30;;;;;;;3.70;2.30;;;;;;;;;;5014328;28;94800;-61
2022/09/25 00:50:58;;;;;;;5.00;1.60;;;;;;;;;;5018659;28;93150;-61
2022/09/25 00:53:30;;;;;;;2.35;1.83;;;;;;;;;;5015141;28;93762;-61
2022/09/25 00:55:56;;;;;;;2.70;1.85;;;;;;;;;;5015629;28;93515;-61
2022/09/25 00:58:26;;;;;;;4.00;2.25;;;;;;;;;;5014915;28;92460;-61
2022/09/25 01:00:52;;;;;;;3.03;2.33;;;;;;;;;;5015481;28;94574;-61
2022/09/25 01:03:19;;;;;;;4.20;2.15;;;;;;;;;;5014711;28;93500;-61
2022/09/25 01:05:46;;;;;;;2.05;1.90;;;;;;;;;;5015499;28;92084;-61
2022/09/25 01:08:15;;;;;;;2.20;1.92;;;;;;;;;;5015194;28;93491;-61
2022/09/25 01:10:41;;;;;;;3.50;1.67;;;;;;;;;;5015225;28;93349;-61
2022/09/25 01:13:09;;;;;;;3.45;1.85;;;;;;;;;;5025446;28;94920;-61
2022/09/25 01:15:43;;;;;;;4.40;2.22;;;;;;;;;;5034569;28;94437;-61
2022/09/25 01:18:15;;;;;;;3.38;1.90;;;;;;;;;;5035569;28;92338;-61
2022/09/25 01:20:56;;;;;;;2.03;1.83;;;;;;;;;;5034783;28;93219;-61
2022/09/25 01:23:25;;;;;;;1.65;1.55;;;;;;;;;;5035345;28;93545;-61
2022/09/25 01:25:55;;;;;;;2.30;1.95;;;;;;;;;;5035260;28;92386;-61
2022/09/25 01:28:24;;;;;;;2.17;1.88;;;;;;;;;;5014295;28;94017;-61
2022/09/25 01:30:54;;;;;;;1.95;1.50;;;;;;;;;;5030725;28;92325;-61
2022/09/25 01:33:29;;;;;;;2.30;2.00;;;;;;;;;;5038589;28;92414;-61
2022/09/25 01:36:09;;;;;;;1.60;1.50;;;;;;;;;;5034367;28;93237;-61
2022/09/25 01:38:41;;;;;;;2.92;1.90;;;;;;;;;;4993345;28;94937;-61
2022/09/25 01:41:17;;;;;;;1.88;1.77;;;;;;;;;;4994578;28;95632;-61
2022/09/25 01:43:47;;;;;;;2.97;1.60;;;;;;;;;;4995735;28;93394;-61
2022/09/25 01:46:42;;;;;;;2.53;1.83;;;;;;;;;;4998084;28;92502;-61
2022/09/25 01:49:13;;;;;;;2.28;1.67;;;;;;;;;;5004223;28;93229;-61
2022/09/25 01:51:50;;;;;;;2.05;1.90;;;;;;;;;;5014440;28;93447;-61
2022/09/25 01:54:37;;;;;;;2.90;1.50;;;;;;;;;;5014605;28;93896;-61
2022/09/25 01:57:06;;;;;;;1.73;1.55;;;;;;;;;;5017571;28;93545;-61
2022/09/25 01:59:37;;;;;;;2.13;1.75;;;;;;;;;;5014736;28;92452;-61
2022/09/25 02:02:06;;;;;;;2.00;1.60;;;;;;;;;;5014020;28;93168;-61
2022/09/25 02:04:41;;;;;;;1.60;1.45;;;;;;;;;;5013772;28;96682;-61
2022/09/25 02:07:09;;;;;;;2.65;1.92;;;;;;;;;;5003215;28;92530;-61
2022/09/25 02:09:37;;;;;;;5.22;1.67;;;;;;;;;;4994330;28;93417;-61
2022/09/25 02:12:06;;;;;;;2.13;1.48;;;;;;;;;;4994484;28;92407;-61
2022/09/25 02:14:38;;;;;;;1.98;1.40;;;;;;;;;;4994747;28;92471;-61
2022/09/25 02:17:06;;;;;;;1.55;1.45;;;;;;;;;;4994108;28;93204;-61
2022/09/25 02:22:19;;;;;;;1.40;1.30;;;;;;;;;;5015773;28;93160;-61
2022/09/25 02:24:49;;;;;;;2.58;1.27;;;;;;;;;;5013789;28;93402;-61
2022/09/25 02:27:20;;;;;;;2.88;1.38;;;;;;;;;;5017061;28;92407;-61
2022/09/25 02:29:46;;;;;;;1.50;1.38;;;;;;;;;;5016766;28;94656;-61
2022/09/25 02:32:14;;;;;;;1.67;1.35;;;;;;;;;;5017263;28;94325;-61
2022/09/25 02:34:40;;;;;;;3.17;1.80;;;;;;;;;;5018333;28;92361;-61
2022/09/25 02:37:10;;;;;;;2.63;1.40;;;;;;;;;;5017229;28;93842;-61
2022/09/25 02:39:37;;;;;;;4.47;1.45;;;;;;;;;;5017547;28;92516;-61
2022/09/25 02:42:13;;;;;;;1.58;1.35;;;;;;;;;;5018888;28;92499;-61
2022/09/25 02:44:46;;;;;;;7.65;1.40;;;;;;;;;;5017259;28;94267;-61
2022/09/25 02:47:13;;;;;;;2.58;1.40;;;;;;;;;;5017732;28;91745;-61
2022/09/25 02:49:45;;;;;;;1.48;1.38;;;;;;;;;;5017846;28;92612;-61
2022/09/25 02:52:30;;;;;;;2.38;1.42;;;;;;;;;;5016360;28;93365;-61
2022/09/25 02:55:26;;;;;;;1.88;1.23;;;;;;;;;;5016461;28;94837;-61
2022/09/25 02:57:55;;;;;;;1.30;1.20;;;;;;;;;;5008610;28;96401;-61
2022/09/25 03:00:22;;;;;;;2.35;1.17;;;;;;;;;;5016590;28;93854;-61
2022/09/25 03:02:52;;;;;;;1.52;1.40;;;;;;;;;;5017803;28;92430;-61
2022/09/25 03:05:19;;;;;;;3.20;2.85;;;;;;;;;;5019496;28;93926;-61
2022/09/25 03:10:32;;;;;;;2.03;1.20;;;;;;;;;;4997654;28;93028;-61
2022/09/25 03:13:22;;;;;;;1.20;1.20;;;;;;;;;;5014378;28;92582;-61
2022/09/25 03:15:50;;;;;;;1.50;1.08;;;;;;;;;;5017525;28;92400;-61
2022/09/25 03:18:17;;;;;;;1.10;1.10;;;;;;;;;;5017103;28;92952;-61
2022/09/25 03:20:43;;;;;;;1.58;1.48;;;;;;;;;;5015011;28;95237;-61
2022/09/25 03:23:10;;;;;;;2.40;1.77;;;;;;;;;;5017132;28;92442;-61
2022/09/25 03:25:37;;;;;;;1.02;1.00;;;;;;;;;;5017292;28;93096;-61
2022/09/25 03:28:07;;;;;;;1.73;1.40;;;;;;;;;;5019951;28;93308;-61
2022/09/25 03:30:33;;;;;;;2.22;1.30;;;;;;;;;;5017576;28;93914;-61
2022/09/25 03:33:00;;;;;;;1.67;1.30;;;;;;;;;;5016062;28;93331;-61
2022/09/25 03:35:26;;;;;;;1.23;1.13;;;;;;;;;;4996552;28;92943;-60
2022/09/25 03:37:52;;;;;;;2.08;1.30;;;;;;;;;;5008129;28;93757;-60
2022/09/25 03:40:20;;;;;;;1.48;1.23;;;;;;;;;;4995641;28;93360;-61
2022/09/25 03:42:46;;;;;;;1.27;1.17;;;;;;;;;;4996910;28;92464;-61
2022/09/25 03:45:12;;;;;;;2.85;1.50;;;;;;;;;;4997925;28;95386;-60
2022/09/25 03:47:39;;;;;;;4.25;1.63;;;;;;;;;;5019210;28;94103;-61
2022/09/25 03:50:07;;;;;;;1.50;1.20;;;;;;;;;;5016521;28;94214;-61
2022/09/25 03:52:33;;;;;;;1.20;1.10;;;;;;;;;;5016616;28;93279;-61
2022/09/25 03:55:00;;;;;;;1.17;1.05;;;;;;;;;;5015950;28;92518;-61
2022/09/25 03:57:26;;;;;;;1.80;1.20;;;;;;;;;;5016900;28;92940;-61
2022/09/25 03:59:52;;;;;;;2.15;1.20;;;;;;;;;;5016517;28;92325;-61
2022/09/25 04:02:19;;;;;;;1.48;1.38;;;;;;;;;;5016026;28;92185;-61
2022/09/25 04:04:45;;;;;;;1.27;1.10;;;;;;;;;;4996742;28;92359;-61
2022/09/25 04:07:11;;;;;;;1.75;1.30;;;;;;;;;;5005120;28;93267;-61
2022/09/25 04:09:38;;;;;;;1.02;1.00;;;;;;;;;;5017314;28;95282;-61
2022/09/25 04:12:06;;;;;;;1.90;1.40;;;;;;;;;;5016160;28;94120;-61
2022/09/25 04:14:32;;;;;;;1.75;1.30;;;;;;;;;;5016214;28;92464;-61
2022/09/25 04:16:58;;;;;;;1.20;1.10;;;;;;;;;;5001461;28;94247;-60
2022/09/25 04:19:25;;;;;;;1.33;1.23;;;;;;;;;;5001173;28;93106;-61
2022/09/25 04:21:51;;;;;;;1.83;1.10;;;;;;;;;;5016769;28;92959;-61
2022/09/25 04:27:02;;;;;;;3.17;1.00;;;;;;;;;;5016589;28;92450;-63
2022/09/25 04:29:30;;;;;;;3.08;1.25;;;;;;;;;;5015464;28;92742;-61
2022/09/25 04:34:43;;;;;;;3.42;1.20;;;;;;;;;;4993902;28;94896;-60
2022/09/25 04:37:09;;;;;;;1.33;1.23;;;;;;;;;;5009800;28;95907;-61
2022/09/25 04:39:36;;;;;;;2.80;1.17;;;;;;;;;;5015262;28;94277;-62
2022/09/25 04:42:02;;;;;;;1.58;1.10;;;;;;;;;;5022560;27;92389;-61
2022/09/25 04:44:29;;;;;;;1.35;0.82;;;;;;;;;;5024027;28;93904;-61
2022/09/25 04:46:56;;;;;;;1.25;1.15;;;;;;;;;;5036198;28;94099;-61
2022/09/25 04:49:22;;;;;;;5.32;1.30;;;;;;;;;;5027947;27;92454;-61
2022/09/25 04:51:49;;;;;;;1.00;1.00;;;;;;;;;;5015428;28;93837;-61
2022/09/25 04:54:15;;;;;;;1.38;1.27;;;;;;;;;;5028255;28;93387;-61
2022/09/25 04:56:42;;;;;;;3.95;1.25;;;;;;;;;;5035949;28;93835;-61
2022/09/25 04:59:10;;;;;;;1.70;1.00;;;;;;;;;;5032713;27;95600;-61
2022/09/25 05:01:37;;;;;;;1.10;1.10;;;;;;;;;;5023881;27;92470;-61
2022/09/25 05:04:04;;;;;;;2.40;1.10;;;;;;;;;;4998330;28;93360;-61
2022/09/25 05:06:34;;;;;;;1.10;1.00;;;;;;;;;;4998508;28;94578;-61
2022/09/25 05:09:00;;;;;;;1.17;1.00;;;;;;;;;;5015327;28;92608;-61
2022/09/25 05:11:27;;;;;;;1.80;1.20;;;;;;;;;;5016244;28;93101;-61
2022/09/25 05:13:54;;;;;;;1.02;1.00;;;;;;;;;;5011771;28;93302;-61
2022/09/25 05:16:20;;;;;;;1.40;1.25;;;;;;;;;;4998475;28;91806;-60
2022/09/25 05:18:46;;;;;;;1.23;1.13;;;;;;;;;;4994573;28;93300;-60
2022/09/25 05:21:13;;;;;;;1.15;1.05;;;;;;;;;;4996117;27;92407;-60
2022/09/25 05:23:39;;;;;;;1.00;0.82;;;;;;;;;;4992509;28;94844;-60
2022/09/25 05:26:05;;;;;;;4.45;0.93;;;;;;;;;;4993303;28;94922;-60
2022/09/25 05:28:32;;;;;;;0.98;0.98;;;;;;;;;;4996215;28;92634;-60
2022/09/25 05:31:02;;;;;;;1.38;1.00;;;;;;;;;;5013505;28;94277;-60
2022/09/25 05:33:29;;;;;;;1.13;1.13;;;;;;;;;;5014463;28;93257;-60
2022/09/25 05:35:59;;;;;;;1.15;1.08;;;;;;;;;;5008916;28;92811;-60
2022/09/25 05:38:25;;;;;;;1.17;1.08;;;;;;;;;;4998039;28;95073;-61
2022/09/25 05:40:52;;;;;;;1.05;0.88;;;;;;;;;;4998007;28;91846;-61
2022/09/25 05:43:19;;;;;;;0.90;0.90;;;;;;;;;;5012211;28;92698;-60
2022/09/25 05:45:52;;;;;;;1.35;1.13;;;;;;;;;;5007816;28;95714;-60
2022/09/25 05:48:18;;;;;;;1.40;1.00;;;;;;;;;;4998205;28;95317;-60
2022/09/25 05:50:55;;;;;;;3.72;1.52;;;;;;;;;;5014689;28;95507;-60
2022/09/25 05:53:22;;;;;;;1.27;1.17;;;;;;;;;;5013227;28;93748;-60
2022/09/25 05:55:49;;;;;;;2.20;1.02;;;;;;;;;;5000628;28;92554;-60
2022/09/25 05:58:16;;;;;;;1.10;1.10;;;;;;;;;;4998552;28;94177;-60
2022/09/25 06:00:42;;;;;;;3.17;1.10;;;;;;;;;;4993549;28;92464;-60
2022/09/25 06:03:09;;;;;;;1.33;1.23;;;;;;;;;;5008423;28;94510;-60
2022/09/25 06:05:37;;;;;;;6.38;1.10;;;;;;;;;;5015191;28;93776;-60
2022/09/25 06:08:03;;;;;;;0.95;0.90;;;;;;;;;;5013557;28;92387;-60
2022/09/25 06:10:30;;;;;;;0.90;0.90;;;;;;;;;;5014712;28;93918;-60
2022/09/25 06:12:59;;;;;;;1.02;0.95;;;;;;;;;;5012627;28;96600;-60
2022/09/25 06:15:26;;;;;;;3.45;1.15;;;;;;;;;;5013828;28;93033;-60
2022/09/25 06:17:53;;;;;;;1.67;0.80;;;;;;;;;;5012687;28;94231;-60
2022/09/25 06:20:21;;;;;;;1.30;1.02;;;;;;;;;;5017006;28;96141;-60
2022/09/25 06:22:51;;;;;;;0.80;0.80;;;;;;;;;;5001886;28;94229;-60
2022/09/25 06:25:17;;;;;;;3.45;1.20;;;;;;;;;;5000877;28;94083;-60
2022/09/25 06:27:44;;;;;;;2.05;1.00;;;;;;;;;;5014422;28;92514;-60
2022/09/25 06:30:10;;;;;;;1.55;1.10;;;;;;;;;;5010973;28;93817;-60
2022/09/25 06:32:37;;;;;;;0.95;0.95;;;;;;;;;;5014166;28;94059;-61
2022/09/25 06:35:03;;;;;;;2.67;1.02;;;;;;;;;;5014344;28;92848;-60
2022/09/25 06:37:30;;;;;;;1.30;1.20;;;;;;;;;;5011780;28;95270;-60
2022/09/25 06:39:56;;;;;;;1.17;1.00;;;;;;;;;;5014166;28;94160;-60
2022/09/25 06:42:22;;;;;;;1.85;1.10;;;;;;;;;;5017378;28;92375;-60
2022/09/25 06:44:49;;;;;;;1.50;1.40;;;;;;;;;;4999790;28;94311;-60
2022/09/25 06:47:15;;;;;;;1.20;1.00;;;;;;;;;;4994168;28;92347;-60
2022/09/25 06:49:46;;;;;;;1.40;1.13;;;;;;;;;;4994739;28;93059;-60
2022/09/25 06:52:12;;;;;;;1.20;1.10;;;;;;;;;;5003271;28;93340;-61
2022/09/25 06:54:38;;;;;;;1.10;1.10;;;;;;;;;;4998066;28;91659;-60
2022/09/25 06:57:11;;;;;;;1.65;1.20;;;;;;;;;;4993172;28;92429;-60
2022/09/25 06:59:37;;;;;;;1.15;1.05;;;;;;;;;;4996658;28;94246;-60
2022/09/25 07:03:43;;;;;;;1.27;1.17;;;;;;;;;;4992300;28;94897;-61
2022/09/25 07:04:50;;;;;;;1.00;0.90;;;;;;;;;;4997006;28;95400;-60
2022/09/25 07:07:21;;;;;;;2.10;1.00;;;;;;;;;;5007734;28;92543;-60
2022/09/25 07:09:47;;;;;;;1.50;1.17;;;;;;;;;;5009218;28;94174;-61
2022/09/25 07:12:15;;;;;;;1.40;0.90;;;;;;;;;;4994124;28;93144;-61
2022/09/25 07:14:43;;;;;;;0.90;0.90;;;;;;;;;;4996905;28;92493;-61
2022/09/25 07:17:09;;;;;;;3.13;1.00;;;;;;;;;;4997375;28;94005;-61
2022/09/25 07:19:35;;;;;;;6.18;1.13;;;;;;;;;;4996875;28;92530;-61
2022/09/25 07:22:03;;;;;;;1.48;1.00;;;;;;;;;;4996925;28;92770;-61
2022/09/25 07:24:30;;;;;;;1.27;1.17;;;;;;;;;;4997379;28;92432;-61
2022/09/25 07:26:56;;;;;;;1.27;1.10;;;;;;;;;;4998371;28;95673;-61
2022/09/25 07:29:22;;;;;;;1.92;1.15;;;;;;;;;;4997744;28;95478;-61
2022/09/25 07:31:49;;;;;;;0.90;0.90;;;;;;;;;;4996786;28;93548;-61
2022/09/25 07:34:15;;;;;;;1.00;1.00;;;;;;;;;;4995868;28;92564;-61
2022/09/25 07:36:42;;;;;;;1.20;1.20;;;;;;;;;;4997260;28;93770;-61
2022/09/25 07:39:08;;;;;;;1.20;0.90;;;;;;;;;;4995238;28;96204;-60
2022/09/25 07:41:40;;;;;;;3.10;1.07;;;;;;;;;;4996334;28;92370;-60
2022/09/25 07:44:06;;;;;;;1.08;1.08;;;;;;;;;;5002903;28;93758;-60
2022/09/25 07:46:52;;;;;;;2.45;0.88;;;;;;;;;;5016029;28;94357;-61
2022/09/25 07:49:19;;;;;;;1.27;1.00;;;;;;;;;;5007068;28;93010;-60
2022/09/25 07:51:45;;;;;;;1.90;0.82;;;;;;;;;;4999946;28;95633;-60
2022/09/25 07:54:11;;;;;;;1.08;1.00;;;;;;;;;;5005399;28;92817;-60
2022/09/25 07:56:38;;;;;;;1.83;1.02;;;;;;;;;;5016885;28;94128;-60
2022/09/25 07:59:05;;;;;;;0.98;0.98;;;;;;;;;;5016362;28;93475;-61
2022/09/25 08:01:31;;;;;;;0.95;0.93;;;;;;;;;;5008641;28;93800;-61
2022/09/25 08:03:58;;;;;;;1.27;0.93;;;;;;;;;;4995967;28;93929;-61
2022/09/25 08:06:24;;;;;;;1.85;1.05;;;;;;;;;;4999019;28;94197;-61
2022/09/25 08:08:50;;;;;;;2.38;0.95;;;;;;;;;;5019347;28;91745;-60
2022/09/25 08:11:17;;;;;;;1.38;1.00;;;;;;;;;;5016321;28;93202;-60
2022/09/25 08:13:44;;;;;;;1.05;0.90;;;;;;;;;;5006237;28;92611;-60
2022/09/25 08:16:12;;;;;;;1.17;0.73;;;;;;;;;;4993243;28;96419;-60
2022/09/25 08:18:40;;;;;;;0.90;0.90;;;;;;;;;;4995662;28;93408;-60
2022/09/25 08:21:07;;;;;;;0.93;0.90;;;;;;;;;;4995964;28;94717;-60
2022/09/25 08:23:33;;;;;;;3.67;1.42;;;;;;;;;;4995364;28;93972;-60
2022/09/25 08:26:00;;;;;;;2.10;1.00;;;;;;;;;;4996073;28;93640;-60
2022/09/25 08:28:27;;;;;;;1.65;1.08;;;;;;;;;;4999374;28;92531;-62
2022/09/25 08:30:56;;;;;;;2.40;1.23;;;;;;;;;;5002692;28;93519;-59
2022/09/25 08:33:22;;;;;;;4.05;0.90;;;;;;;;;;5000460;28;92510;-59
2022/09/25 08:36:01;;;;;;;1.02;1.02;;;;;;;;;;4995483;28;93974;-59
2022/09/25 08:38:28;;;;;;;1.25;1.00;;;;;;;;;;4995748;28;93745;-60
2022/09/25 08:40:58;;;;;;;1.50;0.90;;;;;;;;;;4994187;28;94950;-60
2022/09/25 08:43:25;;;;;;;2.53;0.90;;;;;;;;;;4995066;28;96365;-60
2022/09/25 08:49:01;;;;;;;0.90;0.90;;;;;;;;;;4996269;28;92449;-60
2022/09/25 08:51:57;;;;;;;2.92;1.10;;;;;;;;;;4995116;28;93364;-60
2022/09/25 08:54:27;;;;;;;1.48;1.08;;;;;;;;;;5006516;28;93384;-60
2022/09/25 08:56:58;;;;;;;0.93;0.90;;;;;;;;;;5014943;28;93275;-60
2022/09/25 08:59:27;;;;;;;3.35;1.60;;;;;;;;;;5015637;28;92350;-60
2022/09/25 09:01:59;;;;;;;2.90;1.10;;;;;;;;;;5015522;28;92459;-60
2022/09/25 09:04:30;;;;;;;2.90;1.17;;;;;;;;;;5014338;28;92870;-60
2022/09/25 09:07:00;;;;;;;2.33;1.13;;;;;;;;;;5013100;28;95626;-60
2022/09/25 09:09:48;;;;;;;1.83;1.00;;;;;;;;;;5015524;28;93974;-60
2022/09/25 09:12:19;;;;;;;2.70;1.08;;;;;;;;;;5014240;28;93066;-60
2022/09/25 09:14:48;;;;;;;1.15;0.75;;;;;;;;;;5015034;28;93230;-60
2022/09/25 09:17:24;;;;;;;3.17;1.05;;;;;;;;;;5018719;28;92379;-60
2022/09/25 09:19:53;;;;;;;1.85;1.13;;;;;;;;;;5014143;28;92499;-60
2022/09/25 09:22:23;;;;;;;1.08;0.82;;;;;;;;;;5014628;28;92447;-60
2022/09/25 09:24:58;;;;;;;3.03;1.00;;;;;;;;;;5014022;28;92930;-60
2022/09/25 09:27:39;;;;;;;1.67;1.05;;;;;;;;;;5015260;28;93612;-60
2022/09/25 09:30:11;;;;;;;2.25;1.10;;;;;;;;;;5015164;28;92486;-60
2022/09/25 09:32:41;;;;;;;1.65;0.90;;;;;;;;;;5013195;28;94916;-60
2022/09/25 09:35:13;;;;;;;2.80;0.93;;;;;;;;;;5014824;28;93414;-61
2022/09/25 09:37:58;;;;;;;1.10;1.00;;;;;;;;;;5014623;28;92450;-60
2022/09/25 09:40:38;;;;;;;1.17;0.75;;;;;;;;;;5014401;28;93071;-61
2022/09/25 09:43:18;;;;;;;1.20;1.02;;;;;;;;;;5014917;28;92402;-60
2022/09/25 09:45:51;;;;;;;9.00;1.35;;;;;;;;;;5015560;28;93186;-61
2022/09/25 09:48:40;;;;;;;1.73;0.90;;;;;;;;;;5014456;28;94292;-60
2022/09/25 09:51:16;;;;;;;2.65;1.10;;;;;;;;;;5015415;28;91820;-60
2022/09/25 09:53:45;;;;;;;1.55;0.88;;;;;;;;;;4999075;28;92437;-60
2022/09/25 09:56:23;;;;;;;0.80;0.77;;;;;;;;;;4994404;28;93206;-60
2022/09/25 09:58:53;;;;;;;0.90;0.90;;;;;;;;;;4993247;28;95042;-60
2022/09/25 10:01:20;;;;;;;1.25;1.00;;;;;;;;;;4996561;28;97604;-60
2022/09/25 10:04:09;;;;;;;1.38;0.90;;;;;;;;;;4994791;28;92501;-60
2022/09/25 10:06:42;;;;;;;0.90;0.90;;;;;;;;;;4994906;28;92943;-60
2022/09/25 10:09:12;;;;;;;1.77;1.08;;;;;;;;;;4993384;28;94129;-60
2022/09/25 10:11:39;;;;;;;0.80;0.75;;;;;;;;;;4995090;28;92434;-60
2022/09/25 10:14:10;;;;;;;1.05;0.80;;;;;;;;;;4993712;28;93915;-60
2022/09/25 10:16:36;;;;;;;0.98;0.90;;;;;;;;;;4995278;28;92662;-60
2022/09/25 10:19:18;;;;;;;5.85;1.05;;;;;;;;;;4994642;28;92492;-60
2022/09/25 10:21:47;;;;;;;2.55;1.20;;;;;;;;;;4994156;28;93276;-60
2022/09/25 10:24:32;;;;;;;2.28;1.00;;;;;;;;;;4995496;28;95923;-60
2022/09/25 10:27:18;;;;;;;4.20;1.05;;;;;;;;;;4994605;28;95571;-60
2022/09/25 10:29:44;;;;;;;1.02;0.80;;;;;;;;;;4993383;28;94270;-60
2022/09/25 10:32:11;;;;;;;1.52;0.80;;;;;;;;;;4993904;28;92464;-60
2022/09/25 10:34:38;;;;;;;2.35;1.10;;;;;;;;;;4994546;28;93101;-60
2022/09/25 10:37:18;;;;;;;3.90;0.95;;;;;;;;;;4996132;28;93555;-60
2022/09/25 10:39:58;;;;;;;0.90;0.90;;;;;;;;;;5003732;28;92893;-60
2022/09/25 10:42:38;;;;;;;1.20;1.00;;;;;;;;;;5010643;28;93578;-60
2022/09/25 10:45:19;;;;;;;1.02;0.88;;;;;;;;;;4993650;28;94152;-60
2022/09/25 10:50:33;;;;;;;1.30;0.80;;;;;;;;;;4995123;28;96123;-60
2022/09/25 10:53:00;;;;;;;1.02;0.95;;;;;;;;;;5007209;28;92524;-60
2022/09/25 10:55:31;;;;;;;0.95;0.90;;;;;;;;;;4998527;28;92898;-61
2022/09/25 10:58:04;;;;;;;2.30;1.13;;;;;;;;;;4996482;28;93269;-60
2022/09/25 11:00:33;;;;;;;1.75;1.10;;;;;;;;;;4997986;28;92470;-60
2022/09/25 11:03:01;;;;;;;0.68;0.68;;;;;;;;;;4997651;28;93095;-60
2022/09/25 11:05:29;;;;;;;1.50;1.00;;;;;;;;;;4996730;28;93455;-60
2022/09/25 11:07:58;;;;;;;1.80;1.35;;;;;;;;;;4998979;28;91631;-60
2022/09/25 11:10:30;;;;;;;2.80;1.48;;;;;;;;;;5000292;28;92908;-60
2022/09/25 11:12:57;;;;;;;1.55;1.13;;;;;;;;;;4997526;28;94147;-60
2022/09/25 11:15:25;;;;;;;11.60;8.65;;;;;;;;;;4996259;28;94992;-59
2022/09/25 11:17:53;;;;;;;11.48;8.35;;;;;;;;;;4996933;28;93094;-59
2022/09/25 11:20:28;;;;;;;11.55;6.68;;;;;;;;;;4997313;28;92388;-59
2022/09/25 11:22:54;;;;;;;12.77;6.20;;;;;;;;;;4998207;28;92958;-59
2022/09/25 11:25:25;;;;;;;10.70;6.75;;;;;;;;;;4996047;28;94264;-59
2022/09/25 11:28:10;;;;;;;27.52;17.33;;;;;;;;;;4997276;28;92353;-64
2022/09/25 11:30:47;;;;;;;9.40;7.10;;;;;;;;;;4996437;28;94197;-58
2022/09/25 11:33:33;;;;;;;16.30;6.50;;;;;;;;;;4999714;28;92096;-60
2022/09/25 11:36:04;;;;;;;6.53;5.72;;;;;;;;;;4995625;28;92442;-60
2022/09/25 11:41:21;;;;;;;8.90;5.30;;;;;;;;;;5006093;28;94799;-60
2022/09/25 11:43:57;;;;;;;10.35;4.93;;;;;;;;;;4996935;28;95246;-60
2022/09/25 11:46:26;;;;;;;6.93;5.25;;;;;;;;;;4995969;28;93164;-60
2022/09/25 11:49:23;;;;;;;8.98;5.00;;;;;;;;;;4996898;28;92516;-60
2022/09/25 11:52:05;;;;;;;8.02;4.72;;;;;;;;;;4983312;28;92927;-60
2022/09/25 11:54:37;;;;;;;8.63;5.30;;;;;;;;;;5003358;28;94212;-60
2022/09/25 11:57:27;;;;;;;6.60;4.25;;;;;;;;;;5019584;28;92422;-60
2022/09/25 12:00:03;;;;;;;5.35;4.85;;;;;;;;;;4992722;28;92635;-60
2022/09/25 12:02:39;;;;;;;7.00;4.68;;;;;;;;;;4996169;28;92568;-60
2022/09/25 12:05:13;;;;;;;7.53;4.13;;;;;;;;;;4996618;28;93596;-60
2022/09/25 12:07:39;;;;;;;5.32;4.32;;;;;;;;;;4993885;28;95839;-60
2022/09/25 12:10:24;;;;;;;4.60;3.97;;;;;;;;;;4996563;28;92414;-61
2022/09/25 12:13:01;;;;;;;4.95;4.05;;;;;;;;;;4996532;28;92997;-60
2022/09/25 12:15:37;;;;;;;4.13;3.60;;;;;;;;;;4995793;28;93224;-61
2022/09/25 12:18:03;;;;;;;5.60;3.50;;;;;;;;;;5009791;28;92915;-59
2022/09/25 12:20:51;;;;;;;6.25;3.10;;;;;;;;;;5009482;28;93317;-59
2022/09/25 12:23:27;;;;;;;3.95;3.25;;;;;;;;;;4998890;28;93366;-60
2022/09/25 12:26:02;;;;;;;5.05;2.83;;;;;;;;;;4998003;28;95290;-60
2022/09/25 12:28:48;;;;;;;3.40;2.63;;;;;;;;;;4994901;28;94050;-60
2022/09/25 12:31:33;;;;;;;3.15;2.85;;;;;;;;;;5006934;28;92526;-60
2022/09/25 12:34:06;;;;;;;5.10;2.70;;;;;;;;;;4992830;28;95098;-59
2022/09/25 12:36:47;;;;;;;3.47;2.78;;;;;;;;;;4999971;28;94145;-59
2022/09/25 12:39:20;;;;;;;2.83;2.63;;;;;;;;;;4997334;28;92386;-59
2022/09/25 12:41:50;;;;;;;4.00;2.92;;;;;;;;;;5002549;28;94222;-59
2022/09/25 12:44:20;;;;;;;4.10;2.80;;;;;;;;;;5007345;28;92775;-59
2022/09/25 12:46:55;;;;;;;7.75;2.28;;;;;;;;;;5015983;28;93814;-59
2022/09/25 12:49:31;;;;;;;4.15;2.45;;;;;;;;;;5010149;28;95426;-59
2022/09/25 12:52:00;;;;;;;3.38;2.15;;;;;;;;;;5015095;28;93284;-60
2022/09/25 12:54:31;;;;;;;8.18;2.42;;;;;;;;;;5008633;28;92473;-59
2022/09/25 12:57:08;;;;;;;2.50;2.00;;;;;;;;;;4999602;28;94533;-69
2022/09/25 12:59:37;;;;;;;16.88;2.80;;;;;;;;;;4991762;28;96461;-59
2022/09/25 13:02:26;;;;;;;2.72;2.03;;;;;;;;;;5005966;28;96311;-59
2022/09/25 13:04:52;;;;;;;2.80;1.92;;;;;;;;;;5002119;28;94551;-59
2022/09/25 13:07:23;;;;;;;7.55;2.30;;;;;;;;;;5001287;28;92454;-60
2022/09/25 13:09:50;;;;;;;4.88;1.80;;;;;;;;;;4995147;28;94462;-60
2022/09/25 13:12:20;;;;;;;2.20;2.00;;;;;;;;;;4993543;28;93257;-59
2022/09/25 13:14:53;;;;;;;2.88;1.73;;;;;;;;;;4995059;28;94715;-60
2022/09/25 13:17:19;;;;;;;2.83;1.90;;;;;;;;;;4996647;28;93828;-60
2022/09/25 13:19:46;;;;;;;2.40;1.83;;;;;;;;;;5015263;28;93155;-60
2022/09/25 13:22:25;;;;;;;2.08;1.85;;;;;;;;;;5011490;28;94491;-60
2022/09/25 13:24:52;;;;;;;2.20;2.00;;;;;;;;;;4991920;28;96046;-60
2022/09/25 13:27:21;;;;;;;2.70;1.65;;;;;;;;;;4997903;28;92437;-60
2022/09/25 13:29:53;;;;;;;2.35;1.80;;;;;;;;;;4993306;28;94779;-60
2022/09/25 13:32:22;;;;;;;2.00;1.80;;;;;;;;;;4993584;28;92610;-60
2022/09/25 13:34:51;;;;;;;2.83;1.58;;;;;;;;;;5004632;28;94333;-60
2022/09/25 13:37:17;;;;;;;1.70;1.60;;;;;;;;;;5011480;28;94541;-59
2022/09/25 13:42:37;;;;;;;1.65;1.45;;;;;;;;;;5015446;28;94111;-59
2022/09/25 13:45:22;;;;;;;1.58;1.48;;;;;;;;;;5007112;28;94480;-59
2022/09/25 13:47:54;;;;;;;1.63;1.52;;;;;;;;;;4997610;28;92577;-59
2022/09/25 13:50:39;;;;;;;1.77;1.17;;;;;;;;;;4995404;28;95040;-59
2022/09/25 13:53:21;;;;;;;1.55;1.45;;;;;;;;;;5007847;28;92991;-60
2022/09/25 13:55:47;;;;;;;2.42;1.38;;;;;;;;;;5013261;28;94093;-60
2022/09/25 13:58:24;;;;;;;1.30;1.20;;;;;;;;;;5014321;28;94529;-60
2022/09/25 14:00:54;;;;;;;1.23;1.08;;;;;;;;;;4981687;28;93671;-60
2022/09/25 14:03:36;;;;;;;3.72;1.40;;;;;;;;;;4981972;28;94367;-60
2022/09/25 14:06:03;;;;;;;1.20;1.10;;;;;;;;;;4990536;28;94207;-60
2022/09/25 14:08:31;;;;;;;1.83;1.40;;;;;;;;;;4994503;28;92697;-59
2022/09/25 14:10:59;;;;;;;1.42;1.33;;;;;;;;;;4994612;28;93347;-60
2022/09/25 14:13:27;;;;;;;1.10;1.10;;;;;;;;;;4996980;28;94459;-60
2022/09/25 14:15:56;;;;;;;1.08;1.08;;;;;;;;;;4993177;28;94829;-60
2022/09/25 14:18:25;;;;;;;1.30;1.23;;;;;;;;;;4980463;28;94422;-59
2022/09/25 14:20:56;;;;;;;1.45;1.30;;;;;;;;;;4980637;28;92500;-59
2022/09/25 14:23:24;;;;;;;1.40;1.00;;;;;;;;;;4976939;28;94478;-61
2022/09/25 14:25:58;;;;;;;5.03;1.08;;;;;;;;;;4997759;28;94506;-60
2022/09/25 14:28:26;;;;;;;2.38;1.40;;;;;;;;;;4996923;28;92406;-60
2022/09/25 14:31:01;;;;;;;3.03;1.30;;;;;;;;;;4997652;28;94161;-60
2022/09/25 14:33:34;;;;;;;1.10;1.00;;;;;;;;;;5001281;28;93848;-60
2022/09/25 14:36:09;;;;;;;1.95;1.10;;;;;;;;;;4982448;28;93339;-60
2022/09/25 14:38:56;;;;;;;1.27;0.88;;;;;;;;;;4978399;28;94755;-60
2022/09/25 14:41:45;;;;;;;2.42;1.30;;;;;;;;;;4975924;28;94786;-60
2022/09/25 14:44:16;;;;;;;2.63;0.93;;;;;;;;;;4977493;28;97330;-60
2022/09/25 14:46:44;;;;;;;3.60;0.90;;;;;;;;;;4978137;28;95180;-60
2022/09/25 14:49:14;;;;;;;1.10;1.02;;;;;;;;;;4976911;28;92543;-60
2022/09/25 14:51:43;;;;;;;1.30;0.90;;;;;;;;;;4978693;28;94671;-60
2022/09/25 14:54:15;;;;;;;1.08;1.02;;;;;;;;;;4977214;28;95249;-60
2022/09/25 14:56:47;;;;;;;1.23;1.10;;;;;;;;;;4980199;28;93349;-60
2022/09/25 14:59:29;;;;;;;3.30;1.20;;;;;;;;;;4977772;28;93389;-60
2022/09/25 15:01:57;;;;;;;1.00;0.90;;;;;;;;;;4977583;28;92446;-60
2022/09/25 15:04:26;;;;;;;1.60;0.98;;;;;;;;;;4976803;28;94276;-60
2022/09/25 15:07:12;;;;;;;1.67;1.10;;;;;;;;;;4975501;28;97404;-60
2022/09/25 15:09:47;;;;;;;1.42;0.98;;;;;;;;;;4977380;28;92506;-60
2022/09/25 15:12:16;;;;;;;0.82;0.80;;;;;;;;;;4977253;28;93729;-60
2022/09/25 15:14:59;;;;;;;2.03;1.30;;;;;;;;;;4977446;28;93552;-60
2022/09/25 15:17:26;;;;;;;1.75;1.20;;;;;;;;;;4976450;28;92626;-60
2022/09/25 15:19:53;;;;;;;1.08;0.80;;;;;;;;;;4980393;28;94357;-60
2022/09/25 15:22:22;;;;;;;1.58;1.10;;;;;;;;;;4977193;28;92451;-60
2022/09/25 15:24:53;;;;;;;2.50;0.90;;;;;;;;;;4977358;28;93845;-60
2022/09/25 15:27:21;;;;;;;2.92;1.00;;;;;;;;;;4977633;28;94401;-60
2022/09/25 15:29:48;;;;;;;1.08;1.08;;;;;;;;;;4977307;28;92474;-60